sensor_id;sensor_type;location;lat;lon;timestamp;P1;durP1;ratioP1;P2;durP2;ratioP2
18376;SDS011;9315;52.624;13.544;2024-01-30T00:00:36;14.07;;;6.43;;
18376;SDS011;9315;52.624;13.544;2024-01-30T00:03:05;9.87;;;5.73;;
18376;SDS011;9315;52.624;13.544;2024-01-30T00:05:32;11.73;;;5.87;;
18376;SDS011;9315;52.624;13.544;2024-01-30T00:08:00;12.37;;;6.00;;
18376;SDS011;9315;52.624;13.544;2024-01-30T00:10:27;12.80;;;5.50;;
18376;SDS011;9315;52.624;13.544;2024-01-30T00:12:55;11.03;;;5.80;;
18376;SDS011;9315;52.624;13.544;2024-01-30T00:15:22;12.07;;;5.77;;
18376;SDS011;9315;52.624;13.544;2024-01-30T00:17:50;8.63;;;5.40;;
18376;SDS011;9315;52.624;13.544;2024-01-30T00:20:20;11.57;;;6.27;;
18376;SDS011;9315;52.624;13.544;2024-01-30T00:22:48;14.33;;;6.10;;
18376;SDS011;9315;52.624;13.544;2024-01-30T00:25:15;10.87;;;5.63;;
18376;SDS011;9315;52.624;13.544;2024-01-30T00:27:43;11.80;;;6.10;;
18376;SDS011;9315;52.624;13.544;2024-01-30T00:30:11;14.80;;;6.10;;
18376;SDS011;9315;52.624;13.544;2024-01-30T00:32:39;10.03;;;5.60;;
18376;SDS011;9315;52.624;13.544;2024-01-30T00:35:06;10.77;;;5.60;;
18376;SDS011;9315;52.624;13.544;2024-01-30T00:37:36;11.03;;;5.57;;
18376;SDS011;9315;52.624;13.544;2024-01-30T00:40:04;12.20;;;5.93;;
18376;SDS011;9315;52.624;13.544;2024-01-30T00:42:33;14.67;;;6.50;;
18376;SDS011;9315;52.624;13.544;2024-01-30T00:45:00;13.10;;;5.90;;
18376;SDS011;9315;52.624;13.544;2024-01-30T00:47:28;10.73;;;6.03;;
18376;SDS011;9315;52.624;13.544;2024-01-30T00:49:55;10.23;;;5.67;;
18376;SDS011;9315;52.624;13.544;2024-01-30T00:52:23;10.97;;;5.97;;
18376;SDS011;9315;52.624;13.544;2024-01-30T00:54:50;13.17;;;6.17;;
18376;SDS011;9315;52.624;13.544;2024-01-30T00:57:18;12.37;;;6.13;;
18376;SDS011;9315;52.624;13.544;2024-01-30T00:59:45;14.60;;;6.30;;
18376;SDS011;9315;52.624;13.544;2024-01-30T01:02:13;14.57;;;5.73;;
18376;SDS011;9315;52.624;13.544;2024-01-30T01:04:41;11.90;;;5.63;;
18376;SDS011;9315;52.624;13.544;2024-01-30T01:07:09;11.47;;;6.30;;
18376;SDS011;9315;52.624;13.544;2024-01-30T01:09:37;13.67;;;5.60;;
18376;SDS011;9315;52.624;13.544;2024-01-30T01:12:05;11.33;;;5.43;;
18376;SDS011;9315;52.624;13.544;2024-01-30T01:14:33;12.30;;;5.83;;
18376;SDS011;9315;52.624;13.544;2024-01-30T01:17:00;14.63;;;5.80;;
18376;SDS011;9315;52.624;13.544;2024-01-30T01:19:28;12.43;;;5.87;;
18376;SDS011;9315;52.624;13.544;2024-01-30T01:21:55;10.67;;;5.73;;
18376;SDS011;9315;52.624;13.544;2024-01-30T01:24:23;11.10;;;5.53;;
18376;SDS011;9315;52.624;13.544;2024-01-30T01:26:51;11.93;;;5.87;;
18376;SDS011;9315;52.624;13.544;2024-01-30T01:29:18;13.53;;;5.90;;
18376;SDS011;9315;52.624;13.544;2024-01-30T01:31:47;12.90;;;6.13;;
18376;SDS011;9315;52.624;13.544;2024-01-30T01:34:14;12.60;;;5.70;;
18376;SDS011;9315;52.624;13.544;2024-01-30T01:36:42;10.93;;;6.03;;
18376;SDS011;9315;52.624;13.544;2024-01-30T01:39:10;11.93;;;5.63;;
18376;SDS011;9315;52.624;13.544;2024-01-30T01:41:37;13.87;;;5.80;;
18376;SDS011;9315;52.624;13.544;2024-01-30T01:44:04;13.20;;;6.23;;
18376;SDS011;9315;52.624;13.544;2024-01-30T01:46:32;10.37;;;5.40;;
18376;SDS011;9315;52.624;13.544;2024-01-30T01:49:02;13.20;;;5.63;;
18376;SDS011;9315;52.624;13.544;2024-01-30T01:51:33;16.27;;;6.00;;
18376;SDS011;9315;52.624;13.544;2024-01-30T01:54:05;12.47;;;5.90;;
18376;SDS011;9315;52.624;13.544;2024-01-30T01:56:34;13.33;;;6.10;;
18376;SDS011;9315;52.624;13.544;2024-01-30T01:59:06;13.80;;;5.73;;
18376;SDS011;9315;52.624;13.544;2024-01-30T02:01:36;11.87;;;5.67;;
18376;SDS011;9315;52.624;13.544;2024-01-30T02:04:04;10.57;;;5.77;;
18376;SDS011;9315;52.624;13.544;2024-01-30T02:06:34;14.27;;;5.53;;
18376;SDS011;9315;52.624;13.544;2024-01-30T02:09:02;13.90;;;5.90;;
18376;SDS011;9315;52.624;13.544;2024-01-30T02:11:31;11.37;;;6.07;;
18376;SDS011;9315;52.624;13.544;2024-01-30T02:14:02;10.30;;;5.10;;
18376;SDS011;9315;52.624;13.544;2024-01-30T02:16:31;11.80;;;5.87;;
18376;SDS011;9315;52.624;13.544;2024-01-30T02:18:59;11.57;;;5.10;;
18376;SDS011;9315;52.624;13.544;2024-01-30T02:21:26;11.63;;;5.73;;
18376;SDS011;9315;52.624;13.544;2024-01-30T02:23:54;14.07;;;6.40;;
18376;SDS011;9315;52.624;13.544;2024-01-30T02:26:22;13.53;;;6.37;;
18376;SDS011;9315;52.624;13.544;2024-01-30T02:28:50;10.90;;;5.70;;
18376;SDS011;9315;52.624;13.544;2024-01-30T02:31:17;11.70;;;5.47;;
18376;SDS011;9315;52.624;13.544;2024-01-30T02:33:45;14.50;;;6.10;;
18376;SDS011;9315;52.624;13.544;2024-01-30T02:36:12;12.87;;;5.93;;
18376;SDS011;9315;52.624;13.544;2024-01-30T02:38:42;11.90;;;5.67;;
18376;SDS011;9315;52.624;13.544;2024-01-30T02:41:09;14.33;;;5.93;;
18376;SDS011;9315;52.624;13.544;2024-01-30T02:43:36;11.47;;;6.13;;
18376;SDS011;9315;52.624;13.544;2024-01-30T02:46:04;11.87;;;5.50;;
18376;SDS011;9315;52.624;13.544;2024-01-30T02:48:32;12.80;;;6.40;;
18376;SDS011;9315;52.624;13.544;2024-01-30T02:50:59;16.33;;;6.53;;
18376;SDS011;9315;52.624;13.544;2024-01-30T02:53:26;11.83;;;5.70;;
18376;SDS011;9315;52.624;13.544;2024-01-30T02:55:54;10.50;;;6.07;;
18376;SDS011;9315;52.624;13.544;2024-01-30T02:58:21;13.57;;;6.30;;
18376;SDS011;9315;52.624;13.544;2024-01-30T03:00:49;15.23;;;6.83;;
18376;SDS011;9315;52.624;13.544;2024-01-30T03:03:17;15.60;;;6.50;;
18376;SDS011;9315;52.624;13.544;2024-01-30T03:05:44;13.13;;;5.97;;
18376;SDS011;9315;52.624;13.544;2024-01-30T03:08:11;12.13;;;5.97;;
18376;SDS011;9315;52.624;13.544;2024-01-30T03:10:39;14.13;;;6.87;;
18376;SDS011;9315;52.624;13.544;2024-01-30T03:13:07;13.03;;;6.40;;
18376;SDS011;9315;52.624;13.544;2024-01-30T03:15:34;15.30;;;6.37;;
18376;SDS011;9315;52.624;13.544;2024-01-30T03:18:02;15.30;;;6.57;;
18376;SDS011;9315;52.624;13.544;2024-01-30T03:20:33;16.20;;;6.67;;
18376;SDS011;9315;52.624;13.544;2024-01-30T03:23:00;10.70;;;5.53;;
18376;SDS011;9315;52.624;13.544;2024-01-30T03:25:28;16.37;;;6.57;;
18376;SDS011;9315;52.624;13.544;2024-01-30T03:27:55;15.23;;;6.20;;
18376;SDS011;9315;52.624;13.544;2024-01-30T03:30:22;13.13;;;6.40;;
18376;SDS011;9315;52.624;13.544;2024-01-30T03:32:50;13.17;;;6.73;;
18376;SDS011;9315;52.624;13.544;2024-01-30T03:35:18;13.77;;;6.73;;
18376;SDS011;9315;52.624;13.544;2024-01-30T03:37:46;11.03;;;6.00;;
18376;SDS011;9315;52.624;13.544;2024-01-30T03:40:13;10.90;;;6.13;;
18376;SDS011;9315;52.624;13.544;2024-01-30T03:42:42;11.57;;;5.80;;
18376;SDS011;9315;52.624;13.544;2024-01-30T03:45:09;11.67;;;6.03;;
18376;SDS011;9315;52.624;13.544;2024-01-30T03:47:37;14.30;;;6.57;;
18376;SDS011;9315;52.624;13.544;2024-01-30T03:50:04;12.33;;;5.90;;
18376;SDS011;9315;52.624;13.544;2024-01-30T03:52:32;11.93;;;6.17;;
18376;SDS011;9315;52.624;13.544;2024-01-30T03:54:59;13.43;;;6.20;;
18376;SDS011;9315;52.624;13.544;2024-01-30T03:57:27;16.33;;;7.27;;
18376;SDS011;9315;52.624;13.544;2024-01-30T03:59:54;14.97;;;6.87;;
18376;SDS011;9315;52.624;13.544;2024-01-30T04:02:24;15.10;;;6.63;;
18376;SDS011;9315;52.624;13.544;2024-01-30T04:04:53;12.27;;;6.00;;
18376;SDS011;9315;52.624;13.544;2024-01-30T04:07:20;14.70;;;7.13;;
18376;SDS011;9315;52.624;13.544;2024-01-30T04:09:50;11.27;;;6.17;;
18376;SDS011;9315;52.624;13.544;2024-01-30T04:12:17;13.00;;;6.57;;
18376;SDS011;9315;52.624;13.544;2024-01-30T04:14:44;10.40;;;5.80;;
18376;SDS011;9315;52.624;13.544;2024-01-30T04:17:12;11.07;;;5.53;;
18376;SDS011;9315;52.624;13.544;2024-01-30T04:19:40;20.40;;;7.07;;
18376;SDS011;9315;52.624;13.544;2024-01-30T04:22:07;12.57;;;7.07;;
18376;SDS011;9315;52.624;13.544;2024-01-30T04:24:35;14.77;;;7.00;;
18376;SDS011;9315;52.624;13.544;2024-01-30T04:27:03;14.77;;;6.97;;
18376;SDS011;9315;52.624;13.544;2024-01-30T04:29:30;15.00;;;7.30;;
18376;SDS011;9315;52.624;13.544;2024-01-30T04:31:59;12.97;;;6.77;;
18376;SDS011;9315;52.624;13.544;2024-01-30T04:34:27;16.43;;;7.30;;
18376;SDS011;9315;52.624;13.544;2024-01-30T04:36:54;13.87;;;6.87;;
18376;SDS011;9315;52.624;13.544;2024-01-30T04:39:22;14.93;;;7.10;;
18376;SDS011;9315;52.624;13.544;2024-01-30T04:41:50;14.87;;;7.60;;
18376;SDS011;9315;52.624;13.544;2024-01-30T04:44:17;14.73;;;7.63;;
18376;SDS011;9315;52.624;13.544;2024-01-30T04:46:46;12.33;;;6.60;;
18376;SDS011;9315;52.624;13.544;2024-01-30T04:49:13;16.80;;;7.33;;
18376;SDS011;9315;52.624;13.544;2024-01-30T04:51:41;18.70;;;7.47;;
18376;SDS011;9315;52.624;13.544;2024-01-30T04:54:08;16.90;;;7.97;;
18376;SDS011;9315;52.624;13.544;2024-01-30T04:56:36;17.40;;;7.40;;
18376;SDS011;9315;52.624;13.544;2024-01-30T04:59:03;13.97;;;7.47;;
18376;SDS011;9315;52.624;13.544;2024-01-30T05:01:30;16.10;;;6.87;;
18376;SDS011;9315;52.624;13.544;2024-01-30T05:03:58;17.43;;;7.37;;
18376;SDS011;9315;52.624;13.544;2024-01-30T05:06:29;12.90;;;6.50;;
18376;SDS011;9315;52.624;13.544;2024-01-30T05:08:56;13.43;;;6.73;;
18376;SDS011;9315;52.624;13.544;2024-01-30T05:11:23;16.53;;;7.33;;
18376;SDS011;9315;52.624;13.544;2024-01-30T05:13:51;14.40;;;7.73;;
18376;SDS011;9315;52.624;13.544;2024-01-30T05:16:18;12.03;;;7.03;;
18376;SDS011;9315;52.624;13.544;2024-01-30T05:18:46;15.20;;;7.03;;
18376;SDS011;9315;52.624;13.544;2024-01-30T05:21:14;13.60;;;6.57;;
18376;SDS011;9315;52.624;13.544;2024-01-30T05:23:41;13.43;;;6.27;;
18376;SDS011;9315;52.624;13.544;2024-01-30T05:26:09;15.90;;;7.40;;
18376;SDS011;9315;52.624;13.544;2024-01-30T05:28:39;14.37;;;6.47;;
18376;SDS011;9315;52.624;13.544;2024-01-30T05:31:06;13.00;;;6.33;;
18376;SDS011;9315;52.624;13.544;2024-01-30T05:33:34;14.17;;;7.17;;
18376;SDS011;9315;52.624;13.544;2024-01-30T05:36:02;14.83;;;7.30;;
18376;SDS011;9315;52.624;13.544;2024-01-30T05:38:30;13.23;;;6.53;;
18376;SDS011;9315;52.624;13.544;2024-01-30T05:40:58;15.33;;;7.47;;
18376;SDS011;9315;52.624;13.544;2024-01-30T05:43:26;14.90;;;7.03;;
18376;SDS011;9315;52.624;13.544;2024-01-30T05:45:53;17.40;;;7.13;;
18376;SDS011;9315;52.624;13.544;2024-01-30T05:48:21;15.63;;;7.27;;
18376;SDS011;9315;52.624;13.544;2024-01-30T05:50:48;16.27;;;6.00;;
18376;SDS011;9315;52.624;13.544;2024-01-30T05:53:16;20.30;;;7.40;;
18376;SDS011;9315;52.624;13.544;2024-01-30T05:55:43;15.07;;;7.03;;
18376;SDS011;9315;52.624;13.544;2024-01-30T05:58:11;16.13;;;7.03;;
18376;SDS011;9315;52.624;13.544;2024-01-30T06:00:38;16.10;;;7.00;;
18376;SDS011;9315;52.624;13.544;2024-01-30T06:03:06;16.50;;;7.17;;
18376;SDS011;9315;52.624;13.544;2024-01-30T06:05:34;16.67;;;7.13;;
18376;SDS011;9315;52.624;13.544;2024-01-30T06:08:02;17.97;;;7.53;;
18376;SDS011;9315;52.624;13.544;2024-01-30T06:10:31;14.70;;;7.30;;
18376;SDS011;9315;52.624;13.544;2024-01-30T06:12:58;17.07;;;7.40;;
18376;SDS011;9315;52.624;13.544;2024-01-30T06:15:26;16.40;;;8.00;;
18376;SDS011;9315;52.624;13.544;2024-01-30T06:17:53;13.60;;;7.30;;
18376;SDS011;9315;52.624;13.544;2024-01-30T06:20:20;14.70;;;6.80;;
18376;SDS011;9315;52.624;13.544;2024-01-30T06:22:48;16.27;;;7.77;;
18376;SDS011;9315;52.624;13.544;2024-01-30T06:25:15;14.10;;;7.10;;
18376;SDS011;9315;52.624;13.544;2024-01-30T06:27:43;12.77;;;7.17;;
18376;SDS011;9315;52.624;13.544;2024-01-30T06:30:11;12.57;;;7.03;;
18376;SDS011;9315;52.624;13.544;2024-01-30T06:32:41;12.53;;;6.67;;
18376;SDS011;9315;52.624;13.544;2024-01-30T06:35:08;11.33;;;6.57;;
18376;SDS011;9315;52.624;13.544;2024-01-30T06:37:37;13.07;;;7.43;;
18376;SDS011;9315;52.624;13.544;2024-01-30T06:40:04;12.20;;;6.70;;
18376;SDS011;9315;52.624;13.544;2024-01-30T06:42:33;17.53;;;8.07;;
18376;SDS011;9315;52.624;13.544;2024-01-30T06:45:01;18.83;;;8.57;;
18376;SDS011;9315;52.624;13.544;2024-01-30T06:47:28;16.73;;;7.93;;
18376;SDS011;9315;52.624;13.544;2024-01-30T06:49:57;14.90;;;7.67;;
18376;SDS011;9315;52.624;13.544;2024-01-30T06:52:25;20.93;;;8.23;;
18376;SDS011;9315;52.624;13.544;2024-01-30T06:54:53;14.90;;;7.73;;
18376;SDS011;9315;52.624;13.544;2024-01-30T06:57:21;11.80;;;6.47;;
18376;SDS011;9315;52.624;13.544;2024-01-30T06:59:48;20.63;;;8.43;;
18376;SDS011;9315;52.624;13.544;2024-01-30T07:02:15;14.40;;;7.50;;
18376;SDS011;9315;52.624;13.544;2024-01-30T07:04:43;13.27;;;7.00;;
18376;SDS011;9315;52.624;13.544;2024-01-30T07:07:12;13.20;;;7.67;;
18376;SDS011;9315;52.624;13.544;2024-01-30T07:09:42;13.93;;;7.27;;
18376;SDS011;9315;52.624;13.544;2024-01-30T07:12:09;15.10;;;7.13;;
18376;SDS011;9315;52.624;13.544;2024-01-30T07:14:37;15.73;;;7.67;;
18376;SDS011;9315;52.624;13.544;2024-01-30T07:17:04;15.33;;;6.70;;
18376;SDS011;9315;52.624;13.544;2024-01-30T07:19:32;14.83;;;7.63;;
18376;SDS011;9315;52.624;13.544;2024-01-30T07:22:01;15.57;;;8.57;;
18376;SDS011;9315;52.624;13.544;2024-01-30T07:24:28;16.37;;;7.07;;
18376;SDS011;9315;52.624;13.544;2024-01-30T07:26:56;17.67;;;7.50;;
18376;SDS011;9315;52.624;13.544;2024-01-30T07:29:24;15.93;;;8.00;;
18376;SDS011;9315;52.624;13.544;2024-01-30T07:31:51;15.13;;;7.67;;
18376;SDS011;9315;52.624;13.544;2024-01-30T07:34:19;16.33;;;7.87;;
18376;SDS011;9315;52.624;13.544;2024-01-30T07:36:46;16.80;;;8.43;;
18376;SDS011;9315;52.624;13.544;2024-01-30T07:39:14;13.77;;;6.13;;
18376;SDS011;9315;52.624;13.544;2024-01-30T07:41:42;19.97;;;10.30;;
18376;SDS011;9315;52.624;13.544;2024-01-30T07:44:09;14.67;;;7.20;;
18376;SDS011;9315;52.624;13.544;2024-01-30T07:46:36;19.00;;;7.43;;
18376;SDS011;9315;52.624;13.544;2024-01-30T07:49:04;17.20;;;9.00;;
18376;SDS011;9315;52.624;13.544;2024-01-30T07:51:31;14.13;;;7.27;;
18376;SDS011;9315;52.624;13.544;2024-01-30T07:53:59;14.77;;;6.93;;
18376;SDS011;9315;52.624;13.544;2024-01-30T07:56:26;15.87;;;6.97;;
18376;SDS011;9315;52.624;13.544;2024-01-30T07:58:54;21.93;;;10.07;;
18376;SDS011;9315;52.624;13.544;2024-01-30T08:01:22;25.20;;;10.90;;
18376;SDS011;9315;52.624;13.544;2024-01-30T08:03:49;26.47;;;12.13;;
18376;SDS011;9315;52.624;13.544;2024-01-30T08:06:17;31.70;;;15.70;;
18376;SDS011;9315;52.624;13.544;2024-01-30T08:08:44;62.67;;;31.67;;
18376;SDS011;9315;52.624;13.544;2024-01-30T08:11:12;67.30;;;34.33;;
18376;SDS011;9315;52.624;13.544;2024-01-30T08:13:39;31.97;;;16.17;;
18376;SDS011;9315;52.624;13.544;2024-01-30T08:16:07;22.40;;;10.33;;
18376;SDS011;9315;52.624;13.544;2024-01-30T08:18:39;17.97;;;9.03;;
18376;SDS011;9315;52.624;13.544;2024-01-30T08:21:07;16.10;;;8.63;;
18376;SDS011;9315;52.624;13.544;2024-01-30T08:23:35;17.07;;;8.47;;
18376;SDS011;9315;52.624;13.544;2024-01-30T08:26:06;15.03;;;8.03;;
18376;SDS011;9315;52.624;13.544;2024-01-30T08:28:33;14.03;;;7.37;;
18376;SDS011;9315;52.624;13.544;2024-01-30T08:31:00;17.40;;;8.77;;
18376;SDS011;9315;52.624;13.544;2024-01-30T08:33:28;16.57;;;8.47;;
18376;SDS011;9315;52.624;13.544;2024-01-30T08:35:56;22.60;;;10.87;;
18376;SDS011;9315;52.624;13.544;2024-01-30T08:38:23;15.63;;;8.73;;
18376;SDS011;9315;52.624;13.544;2024-01-30T08:40:51;32.57;;;14.27;;
18376;SDS011;9315;52.624;13.544;2024-01-30T08:43:18;22.63;;;10.77;;
18376;SDS011;9315;52.624;13.544;2024-01-30T08:45:46;20.33;;;10.77;;
18376;SDS011;9315;52.624;13.544;2024-01-30T08:48:13;16.83;;;9.53;;
18376;SDS011;9315;52.624;13.544;2024-01-30T08:50:41;47.23;;;18.40;;
18376;SDS011;9315;52.624;13.544;2024-01-30T08:53:11;94.77;;;39.27;;
18376;SDS011;9315;52.624;13.544;2024-01-30T08:55:38;41.00;;;17.57;;
18376;SDS011;9315;52.624;13.544;2024-01-30T08:58:06;22.27;;;9.60;;
18376;SDS011;9315;52.624;13.544;2024-01-30T09:00:34;37.93;;;17.43;;
18376;SDS011;9315;52.624;13.544;2024-01-30T09:03:02;18.33;;;8.57;;
18376;SDS011;9315;52.624;13.544;2024-01-30T09:05:30;15.27;;;8.17;;
18376;SDS011;9315;52.624;13.544;2024-01-30T09:07:58;18.50;;;7.77;;
18376;SDS011;9315;52.624;13.544;2024-01-30T09:10:26;16.23;;;7.53;;
18376;SDS011;9315;52.624;13.544;2024-01-30T09:12:53;18.63;;;8.43;;
18376;SDS011;9315;52.624;13.544;2024-01-30T09:15:21;14.00;;;8.00;;
18376;SDS011;9315;52.624;13.544;2024-01-30T09:17:52;19.50;;;8.80;;
18376;SDS011;9315;52.624;13.544;2024-01-30T09:20:19;19.57;;;8.37;;
18376;SDS011;9315;52.624;13.544;2024-01-30T09:22:48;21.40;;;9.50;;
18376;SDS011;9315;52.624;13.544;2024-01-30T09:25:16;14.60;;;7.73;;
18376;SDS011;9315;52.624;13.544;2024-01-30T09:27:45;22.47;;;8.87;;
18376;SDS011;9315;52.624;13.544;2024-01-30T09:30:13;17.73;;;8.03;;
18376;SDS011;9315;52.624;13.544;2024-01-30T09:32:41;17.43;;;7.67;;
18376;SDS011;9315;52.624;13.544;2024-01-30T09:35:10;23.03;;;8.47;;
18376;SDS011;9315;52.624;13.544;2024-01-30T09:37:37;16.77;;;8.10;;
18376;SDS011;9315;52.624;13.544;2024-01-30T09:40:06;18.33;;;8.10;;
18376;SDS011;9315;52.624;13.544;2024-01-30T09:42:34;14.17;;;7.70;;
18376;SDS011;9315;52.624;13.544;2024-01-30T09:45:04;16.47;;;7.40;;
18376;SDS011;9315;52.624;13.544;2024-01-30T09:47:34;16.37;;;8.50;;
18376;SDS011;9315;52.624;13.544;2024-01-30T09:50:12;19.30;;;8.23;;
18376;SDS011;9315;52.624;13.544;2024-01-30T09:52:42;20.07;;;8.20;;
18376;SDS011;9315;52.624;13.544;2024-01-30T09:55:12;20.70;;;10.43;;
18376;SDS011;9315;52.624;13.544;2024-01-30T09:57:41;17.93;;;8.77;;
18376;SDS011;9315;52.624;13.544;2024-01-30T10:00:09;16.43;;;8.13;;
18376;SDS011;9315;52.624;13.544;2024-01-30T10:02:38;21.60;;;8.67;;
18376;SDS011;9315;52.624;13.544;2024-01-30T10:05:07;15.10;;;8.13;;
18376;SDS011;9315;52.624;13.544;2024-01-30T10:07:36;19.20;;;8.00;;
18376;SDS011;9315;52.624;13.544;2024-01-30T10:10:05;18.57;;;8.07;;
18376;SDS011;9315;52.624;13.544;2024-01-30T10:12:33;17.97;;;7.87;;
18376;SDS011;9315;52.624;13.544;2024-01-30T10:15:01;24.73;;;8.47;;
18376;SDS011;9315;52.624;13.544;2024-01-30T10:20:03;18.53;;;8.00;;
18376;SDS011;9315;52.624;13.544;2024-01-30T10:22:32;15.90;;;8.00;;
18376;SDS011;9315;52.624;13.544;2024-01-30T10:25:00;16.17;;;7.80;;
18376;SDS011;9315;52.624;13.544;2024-01-30T10:27:31;19.27;;;8.57;;
18376;SDS011;9315;52.624;13.544;2024-01-30T10:29:59;15.43;;;7.70;;
18376;SDS011;9315;52.624;13.544;2024-01-30T10:32:26;17.93;;;8.30;;
18376;SDS011;9315;52.624;13.544;2024-01-30T10:34:54;17.60;;;8.00;;
18376;SDS011;9315;52.624;13.544;2024-01-30T10:37:22;23.13;;;8.00;;
18376;SDS011;9315;52.624;13.544;2024-01-30T10:39:53;14.27;;;7.27;;
18376;SDS011;9315;52.624;13.544;2024-01-30T10:42:25;21.97;;;8.17;;
18376;SDS011;9315;52.624;13.544;2024-01-30T10:45:05;16.80;;;7.93;;
18376;SDS011;9315;52.624;13.544;2024-01-30T10:47:36;17.63;;;7.00;;
18376;SDS011;9315;52.624;13.544;2024-01-30T10:50:04;17.97;;;6.83;;
18376;SDS011;9315;52.624;13.544;2024-01-30T10:52:34;19.40;;;7.63;;
18376;SDS011;9315;52.624;13.544;2024-01-30T10:55:03;22.13;;;7.30;;
18376;SDS011;9315;52.624;13.544;2024-01-30T10:57:35;22.47;;;7.87;;
18376;SDS011;9315;52.624;13.544;2024-01-30T11:00:13;29.27;;;6.83;;
18376;SDS011;9315;52.624;13.544;2024-01-30T11:02:43;28.13;;;8.27;;
18376;SDS011;9315;52.624;13.544;2024-01-30T11:05:13;17.00;;;6.37;;
18376;SDS011;9315;52.624;13.544;2024-01-30T11:07:44;16.07;;;5.80;;
18376;SDS011;9315;52.624;13.544;2024-01-30T11:10:11;31.33;;;6.53;;
18376;SDS011;9315;52.624;13.544;2024-01-30T11:12:42;15.27;;;6.40;;
18376;SDS011;9315;52.624;13.544;2024-01-30T11:15:14;12.80;;;6.00;;
18376;SDS011;9315;52.624;13.544;2024-01-30T11:22:58;13.77;;;6.00;;
18376;SDS011;9315;52.624;13.544;2024-01-30T11:25:28;16.07;;;5.80;;
18376;SDS011;9315;52.624;13.544;2024-01-30T11:27:59;12.40;;;5.50;;
18376;SDS011;9315;52.624;13.544;2024-01-30T11:30:28;24.00;;;7.37;;
18376;SDS011;9315;52.624;13.544;2024-01-30T11:35:46;16.97;;;6.70;;
18376;SDS011;9315;52.624;13.544;2024-01-30T11:38:15;19.77;;;5.60;;
18376;SDS011;9315;52.624;13.544;2024-01-30T11:40:42;13.93;;;6.37;;
18376;SDS011;9315;52.624;13.544;2024-01-30T11:43:11;16.67;;;6.07;;
18376;SDS011;9315;52.624;13.544;2024-01-30T11:45:39;12.23;;;5.50;;
18376;SDS011;9315;52.624;13.544;2024-01-30T11:48:07;18.77;;;5.80;;
18376;SDS011;9315;52.624;13.544;2024-01-30T11:50:38;10.70;;;5.70;;
18376;SDS011;9315;52.624;13.544;2024-01-30T11:53:11;11.53;;;5.37;;
18376;SDS011;9315;52.624;13.544;2024-01-30T11:55:40;17.97;;;5.73;;
18376;SDS011;9315;52.624;13.544;2024-01-30T11:58:07;12.17;;;5.60;;
18376;SDS011;9315;52.624;13.544;2024-01-30T12:00:35;19.70;;;6.20;;
18376;SDS011;9315;52.624;13.544;2024-01-30T12:03:02;11.27;;;5.20;;
18376;SDS011;9315;52.624;13.544;2024-01-30T12:05:33;15.23;;;5.37;;
18376;SDS011;9315;52.624;13.544;2024-01-30T12:08:00;12.20;;;5.73;;
18376;SDS011;9315;52.624;13.544;2024-01-30T12:10:28;10.27;;;5.23;;
18376;SDS011;9315;52.624;13.544;2024-01-30T12:12:57;12.33;;;5.47;;
18376;SDS011;9315;52.624;13.544;2024-01-30T12:15:25;10.97;;;5.80;;
18376;SDS011;9315;52.624;13.544;2024-01-30T12:18:03;8.70;;;5.23;;
18376;SDS011;9315;52.624;13.544;2024-01-30T12:20:33;10.47;;;5.47;;
18376;SDS011;9315;52.624;13.544;2024-01-30T12:23:01;15.00;;;5.47;;
18376;SDS011;9315;52.624;13.544;2024-01-30T12:25:29;12.77;;;5.50;;
18376;SDS011;9315;52.624;13.544;2024-01-30T12:27:58;9.43;;;5.37;;
18376;SDS011;9315;52.624;13.544;2024-01-30T12:30:26;15.57;;;5.77;;
18376;SDS011;9315;52.624;13.544;2024-01-30T12:32:56;14.10;;;5.63;;
18376;SDS011;9315;52.624;13.544;2024-01-30T12:35:24;11.33;;;5.27;;
18376;SDS011;9315;52.624;13.544;2024-01-30T12:37:57;16.67;;;5.60;;
18376;SDS011;9315;52.624;13.544;2024-01-30T12:42:54;11.27;;;5.90;;
18376;SDS011;9315;52.624;13.544;2024-01-30T12:45:23;13.43;;;6.27;;
18376;SDS011;9315;52.624;13.544;2024-01-30T12:47:53;13.63;;;6.03;;
18376;SDS011;9315;52.624;13.544;2024-01-30T12:50:22;12.20;;;5.60;;
18376;SDS011;9315;52.624;13.544;2024-01-30T12:52:50;14.10;;;5.57;;
18376;SDS011;9315;52.624;13.544;2024-01-30T12:55:18;11.53;;;5.47;;
18376;SDS011;9315;52.624;13.544;2024-01-30T13:00:14;22.30;;;6.20;;
18376;SDS011;9315;52.624;13.544;2024-01-30T13:02:44;20.27;;;6.17;;
18376;SDS011;9315;52.624;13.544;2024-01-30T13:05:12;8.47;;;5.00;;
18376;SDS011;9315;52.624;13.544;2024-01-30T13:07:41;13.10;;;5.43;;
18376;SDS011;9315;52.624;13.544;2024-01-30T13:10:08;17.63;;;6.07;;
18376;SDS011;9315;52.624;13.544;2024-01-30T13:12:36;14.77;;;6.23;;
18376;SDS011;9315;52.624;13.544;2024-01-30T13:15:05;15.57;;;5.57;;
18376;SDS011;9315;52.624;13.544;2024-01-30T13:17:33;11.67;;;5.80;;
18376;SDS011;9315;52.624;13.544;2024-01-30T13:20:01;15.70;;;6.20;;
18376;SDS011;9315;52.624;13.544;2024-01-30T13:22:36;18.27;;;6.23;;
18376;SDS011;9315;52.624;13.544;2024-01-30T13:25:06;21.60;;;5.80;;
18376;SDS011;9315;52.624;13.544;2024-01-30T13:27:35;12.93;;;5.90;;
18376;SDS011;9315;52.624;13.544;2024-01-30T13:30:06;14.53;;;5.80;;
18376;SDS011;9315;52.624;13.544;2024-01-30T13:32:36;17.23;;;5.40;;
18376;SDS011;9315;52.624;13.544;2024-01-30T13:35:04;16.07;;;5.80;;
18376;SDS011;9315;52.624;13.544;2024-01-30T13:37:32;13.80;;;5.70;;
18376;SDS011;9315;52.624;13.544;2024-01-30T13:40:03;9.20;;;5.60;;
18376;SDS011;9315;52.624;13.544;2024-01-30T13:42:39;14.67;;;5.90;;
18376;SDS011;9315;52.624;13.544;2024-01-30T13:45:07;11.93;;;5.83;;
18376;SDS011;9315;52.624;13.544;2024-01-30T13:47:37;17.90;;;5.63;;
18376;SDS011;9315;52.624;13.544;2024-01-30T13:50:05;12.43;;;6.33;;
18376;SDS011;9315;52.624;13.544;2024-01-30T13:52:33;15.50;;;6.30;;
18376;SDS011;9315;52.624;13.544;2024-01-30T13:55:10;19.20;;;5.93;;
18376;SDS011;9315;52.624;13.544;2024-01-30T13:57:38;14.10;;;6.93;;
18376;SDS011;9315;52.624;13.544;2024-01-30T14:00:06;15.10;;;6.37;;
18376;SDS011;9315;52.624;13.544;2024-01-30T14:02:34;15.27;;;6.37;;
18376;SDS011;9315;52.624;13.544;2024-01-30T14:05:01;13.17;;;5.80;;
18376;SDS011;9315;52.624;13.544;2024-01-30T14:07:32;15.43;;;7.00;;
18376;SDS011;9315;52.624;13.544;2024-01-30T14:10:00;12.13;;;6.77;;
18376;SDS011;9315;52.624;13.544;2024-01-30T14:12:31;14.90;;;6.90;;
18376;SDS011;9315;52.624;13.544;2024-01-30T14:14:59;22.03;;;6.77;;
18376;SDS011;9315;52.624;13.544;2024-01-30T14:17:29;19.10;;;7.03;;
18376;SDS011;9315;52.624;13.544;2024-01-30T14:19:57;17.90;;;7.37;;
18376;SDS011;9315;52.624;13.544;2024-01-30T14:22:25;15.10;;;6.43;;
18376;SDS011;9315;52.624;13.544;2024-01-30T14:24:52;20.37;;;7.13;;
18376;SDS011;9315;52.624;13.544;2024-01-30T14:27:20;19.93;;;6.43;;
18376;SDS011;9315;52.624;13.544;2024-01-30T14:29:47;20.80;;;6.90;;
18376;SDS011;9315;52.624;13.544;2024-01-30T14:32:15;27.50;;;7.07;;
18376;SDS011;9315;52.624;13.544;2024-01-30T14:34:42;18.90;;;7.10;;
18376;SDS011;9315;52.624;13.544;2024-01-30T14:37:10;42.70;;;7.90;;
18376;SDS011;9315;52.624;13.544;2024-01-30T14:39:38;17.50;;;6.83;;
18376;SDS011;9315;52.624;13.544;2024-01-30T14:42:07;29.80;;;7.20;;
18376;SDS011;9315;52.624;13.544;2024-01-30T14:44:34;23.97;;;7.90;;
18376;SDS011;9315;52.624;13.544;2024-01-30T14:47:02;22.27;;;6.83;;
18376;SDS011;9315;52.624;13.544;2024-01-30T14:49:30;15.97;;;6.53;;
18376;SDS011;9315;52.624;13.544;2024-01-30T14:51:57;23.03;;;6.90;;
18376;SDS011;9315;52.624;13.544;2024-01-30T14:54:27;23.57;;;10.73;;